Grizzly Air Cargo 5110


PANC
Ted Stevens Anchorage International Airport
Anchorage, Alaska, US
PAJN
Juneau International Airport
Juneau, Alaska, US

Activity Log

Date Flight Route Aircraft Duration
06/16/2020 GRZ5110 NOEND JOH J501 YAK J541 SSR B722 1h 38m
12/11/2019 GRZ5110 NOEND JOH J501 YAK J541 SSR B722 1h 44m
09/27/2019 GRZ501 NOEND JOH J501 YAK J541 SSR B722 1h 17m
09/24/2019 GRZ531 NOEND JOH J501 YAK J541 SSR B738 1h 33m
08/28/2019 GRZ531 NOEND JOH J501 YAK J541 SSR B738 1h 14m
07/23/2019 GRZ531 NOEND JOH J501 YAK J541 SSR B738 1h 39m
06/30/2019 GRZ501 NOEND JOH J501 YAK J541 SSR B722 1h 43m
05/09/2019 GRZ501 JOH J501 YAK J541 SSR B722 1h 33m
03/19/2019 GRZ501 YESKA J501 YAK J541 SSR B722 1h 32m
03/07/2019 GRZ501 NOEND JOH J501 YAK J541 SSR B722 1h 32m

Route Details

Aircraft Information
Primary: Boeing 727-200F
Backup: Boeing 737-800BCF
Route Data
Distance: 496nm
Sched. Duration: 1h 50m
Avg. Duration: 1h 33m (-17m)
Times Flown: 10
Recm'd Route: NOEND JOH J501 YAK J541 SSR
Planned Altitude: 31,000ft
Origin Wx: PANC 080553Z VRB06KT 10SM FEW055 BKN085 BKN250 16/09 A2960 RMK AO2 SLP026 T01560089 10194 20156 51023
Dest. Wx: PAJN 080600Z 07008KT 8SM -RA FEW003 BKN032 OVC041 12/11 A2981 RMK AO2 P0001 T01170106
Notes:

Financial History
Total Freight: 362,673lbs
Average Load: 36,267lbs/flt
Fuel Used: 114,122lbs
Avg. Fuel Used: 11,412lbs/flt
Fuel Expense: $143,093
Avg. Fuel Expense: $14,309
Avg. Fuel Cost: $1.25/lbs
Total Gross Income: $526,957
Pilot Pay: $1,570
Total Expenses: $57,431
Total Revenue: $323,717
Average Revenue: $52,695.66